Historique des stations

Station météo de Culan

Altitude de la station : 276 m







Données météorologiques pour le 18/05/2022
Date
Heure
Températures Humidité Point de rosée Vitesse
du vent
Direction Rafales Windchill Pression Pluviométrie
Cumul
Date
Heure
Températures Humidité Point de rosée Vitesse
du vent
Direction Rafales Windchill Pression Pluviométrie
Cumul
18/05/2022 16:1529.2 °C57 %20.0 °C-SE16 km/h29.4 1017 hPa-
18/05/2022 16:0329.3 °C56 %19.4 °C-ESE6 km/h29.4 1017 hPa-
18/05/2022 16:0029.3 °C57 %20.0 °C-SE16 km/h29.4 1017 hPa-
18/05/2022 15:4829.2 °C58 %20.0 °C-ESE5 km/h29.4 1018 hPa-
18/05/2022 15:4529.1 °C59 %20.0 °C-ESE16 km/h28.9 1017 hPa-
18/05/2022 15:3328.8 °C60 %20.0 °C-ESE2 km/h28.9 1018 hPa-
18/05/2022 15:3028.6 °C61 %20.6 °C-ESE16 km/h28.9 1018 hPa-
18/05/2022 15:1828.4 °C62 %20.6 °C---28.3 1018 hPa-
18/05/2022 15:1528.3 °C61 %20.0 °C-SE16 km/h28.3 1018 hPa-
18/05/2022 15:0328.3 °C58 %19.4 °C-S2 km/h28.3 1018 hPa-
18/05/2022 15:0028.2 °C60 %19.4 °C-SSE16 km/h28.3 1018 hPa-
18/05/2022 14:4827.9 °C58 %18.9 °C-E10 km/h27.8 1018 hPa-
18/05/2022 14:4527.8 °C59 %18.9 °C-ESE16 km/h27.8 1018 hPa-
18/05/2022 14:3327.5 °C60 %18.9 °C-SSE2 km/h27.8 1019 hPa-
18/05/2022 14:3027.6 °C57 %18.3 °C-SSE16 km/h27.8 1019 hPa-
18/05/2022 14:1827.4 °C62 %19.4 °C-E2 km/h27.2 1019 hPa-
18/05/2022 14:1527.3 °C60 %18.9 °C-SE16 km/h27.2 1019 hPa-
18/05/2022 14:0327.3 °C61 %18.9 °C-SE2 km/h27.2 1019 hPa-
18/05/2022 14:0027.3 °C60 %18.9 °C-SE16 km/h27.2 1019 hPa-
18/05/2022 13:4827.0 °C60 %18.3 °C-S13 km/h27.2 1019 hPa-
18/05/2022 13:4527.0 °C61 %18.9 °C2 km/hSE16 km/h27.2 1019 hPa-
18/05/2022 13:3326.9 °C60 %18.3 °C-SSE16 km/h27.2 1019 hPa-
18/05/2022 13:3026.9 °C60 %18.3 °C-ENE13 km/h27.2 1019 hPa-
18/05/2022 13:1827.1 °C62 %18.9 °C-SE13 km/h27.2 1019 hPa-
18/05/2022 13:1527.0 °C63 %19.4 °C-SE13 km/h27.2 1019 hPa-
18/05/2022 13:0326.4 °C65 %19.4 °C-ESE8 km/h26.7 1020 hPa-
18/05/2022 13:0026.4 °C65 %19.4 °C-E8 km/h26.7 1020 hPa-
18/05/2022 12:4926.3 °C66 %19.4 °C-ESE2 km/h26.1 1020 hPa-
18/05/2022 12:4526.2 °C65 %18.9 °C-ENE8 km/h26.1 1020 hPa-
18/05/2022 12:3325.7 °C65 %18.9 °C-SE5 km/h25.6 1020 hPa-
18/05/2022 12:3025.7 °C64 %18.3 °C-SSE8 km/h25.6 1020 hPa-
18/05/2022 12:1825.3 °C66 %18.3 °C-ESE2 km/h25.6 1020 hPa-
18/05/2022 12:1525.2 °C65 %18.3 °C-E8 km/h25.0 1020 hPa-
18/05/2022 12:0324.8 °C68 %18.3 °C-ESE2 km/h25.0 1020 hPa-
18/05/2022 12:0024.8 °C68 %18.3 °C-SE3 km/h25.0 1020 hPa-
18/05/2022 11:4824.6 °C66 %17.8 °C-E2 km/h24.4 1020 hPa-
18/05/2022 11:4524.6 °C66 %17.8 °C-E3 km/h24.4 1020 hPa-
18/05/2022 11:3424.6 °C68 %18.3 °C-ESE2 km/h24.4 1020 hPa-
18/05/2022 11:3024.6 °C66 %17.8 °C-E3 km/h24.4 1021 hPa-
18/05/2022 11:1724.1 °C72 %18.9 °C-ESE2 km/h23.9 1021 hPa-
18/05/2022 11:1423.9 °C70 %18.3 °C-ESE3 km/h23.9 1021 hPa-
18/05/2022 11:0223.7 °C70 %17.8 °C---23.9 1021 hPa-
18/05/2022 10:5923.7 °C73 %18.9 °C-E3 km/h23.9 1021 hPa-
18/05/2022 10:4823.4 °C73 %18.3 °C---23.3 1021 hPa-
18/05/2022 10:4523.3 °C71 %17.8 °C-E3 km/h23.3 1021 hPa-
18/05/2022 10:3223.0 °C71 %17.2 °C-E2 km/h22.8 1021 hPa-
18/05/2022 10:3023.1 °C71 %17.8 °C-ENE3 km/h23.3 1021 hPa-
18/05/2022 10:1722.9 °C71 %17.2 °C-ENE2 km/h22.8 1021 hPa-
18/05/2022 10:1522.8 °C72 %17.2 °C-SE3 km/h22.8 1021 hPa-
18/05/2022 10:0222.3 °C73 %17.2 °C---22.2 1021 hPa-
18/05/2022 10:0022.3 °C72 %17.2 °C-E3 km/h22.2 1021 hPa-
18/05/2022 09:4721.9 °C73 %16.7 °C-SE3 km/h21.7 1021 hPa-
18/05/2022 09:4521.8 °C72 %16.7 °C-SE3 km/h21.7 1021 hPa-
18/05/2022 09:3221.7 °C72 %16.7 °C---21.7 1021 hPa-
18/05/2022 09:3021.7 °C72 %16.7 °C-NNE3 km/h21.7 1021 hPa-
18/05/2022 09:1821.7 °C73 %16.7 °C---21.7 1021 hPa-
18/05/2022 09:1521.6 °C73 %16.7 °C-N3 km/h21.7 1021 hPa-
18/05/2022 09:0221.1 °C75 %16.7 °C---21.1 1021 hPa-
18/05/2022 09:0021.0 °C75 %16.7 °C-ONO3 km/h21.1 1021 hPa-
18/05/2022 08:4720.1 °C77 %16.1 °C---20.0 1021 hPa-
18/05/2022 08:4520.0 °C77 %16.1 °C-ONO3 km/h20.0 1021 hPa-
18/05/2022 08:3219.3 °C82 %16.1 °C---19.4 1021 hPa-
18/05/2022 08:3019.1 °C83 %16.1 °C-ONO3 km/h18.9 1021 hPa-
18/05/2022 08:1718.4 °C83 %15.6 °C---18.3 1022 hPa-
18/05/2022 08:1518.2 °C83 %15.6 °C-ONO3 km/h18.3 1021 hPa-
18/05/2022 08:0217.4 °C86 %15.0 °C---17.2 1022 hPa-
18/05/2022 08:0017.2 °C86 %15.0 °C-ONO3 km/h17.2 1021 hPa-
18/05/2022 07:4716.7 °C86 %14.4 °C---16.7 1022 hPa-
18/05/2022 07:4516.7 °C86 %14.4 °C-O3 km/h16.7 1021 hPa-
18/05/2022 07:3216.3 °C87 %13.9 °C---16.1 1021 hPa-
18/05/2022 07:3016.3 °C87 %13.9 °C-ONO3 km/h16.1 1021 hPa-
18/05/2022 07:1715.8 °C88 %13.9 °C---15.6 1021 hPa-
18/05/2022 07:1515.7 °C89 %13.9 °C-ONO3 km/h15.6 1021 hPa-
18/05/2022 07:0215.3 °C88 %13.3 °C---15.6 1021 hPa-
18/05/2022 07:0015.3 °C88 %13.3 °C-O3 km/h15.6 1021 hPa-
18/05/2022 06:4715.4 °C87 %13.3 °C---15.6 1021 hPa-
18/05/2022 06:4515.5 °C87 %13.3 °C-ONO3 km/h15.6 1021 hPa-
18/05/2022 06:3215.6 °C88 %13.9 °C---15.6 1021 hPa-
18/05/2022 06:3015.6 °C87 %13.3 °C-ONO3 km/h15.6 1021 hPa-
18/05/2022 06:1715.7 °C87 %13.3 °C---15.6 1021 hPa-
18/05/2022 06:1515.6 °C87 %13.3 °C-ONO3 km/h15.6 1021 hPa-
18/05/2022 06:0215.7 °C86 %13.3 °C---15.6 1021 hPa-
18/05/2022 06:0015.8 °C86 %13.3 °C-ONO3 km/h15.6 1021 hPa-
18/05/2022 05:4716.1 °C85 %13.3 °C---16.1 1021 hPa-
18/05/2022 05:4516.1 °C85 %13.9 °C-O3 km/h16.1 1021 hPa-
18/05/2022 05:3216.2 °C85 %13.9 °C---16.1 1021 hPa-
18/05/2022 05:3016.2 °C85 %13.9 °C-O3 km/h16.1 1021 hPa-
18/05/2022 05:1716.4 °C84 %13.9 °C---16.7 1021 hPa-
18/05/2022 05:1516.4 °C84 %13.9 °C-ONO3 km/h16.7 1021 hPa-
18/05/2022 05:0216.6 °C83 %13.9 °C---16.7 1020 hPa-
18/05/2022 05:0016.7 °C83 %13.9 °C-O3 km/h16.7 1021 hPa-
18/05/2022 04:4717.0 °C82 %13.9 °C---17.2 1020 hPa-
18/05/2022 04:4517.0 °C82 %13.9 °C-O3 km/h17.2 1021 hPa-
18/05/2022 04:3217.3 °C81 %13.9 °C---17.2 1020 hPa-
18/05/2022 04:3017.3 °C81 %13.9 °C-O3 km/h17.2 1020 hPa-
18/05/2022 04:1717.5 °C81 %14.4 °C---17.8 1021 hPa-
18/05/2022 04:1517.5 °C81 %14.4 °C-O3 km/h17.8 1020 hPa-
18/05/2022 04:0217.9 °C80 %14.4 °C---17.8 1021 hPa-
18/05/2022 04:0017.9 °C80 %14.4 °C-ONO3 km/h17.8 1021 hPa-
18/05/2022 03:4717.9 °C80 %14.4 °C---17.8 1021 hPa-
18/05/2022 03:4517.9 °C80 %14.4 °C-ONO3 km/h17.8 1021 hPa-
18/05/2022 03:3218.0 °C79 %14.4 °C---17.8 1021 hPa-
18/05/2022 03:3018.1 °C79 %14.4 °C-ONO3 km/h18.3 1021 hPa-
18/05/2022 03:1718.3 °C78 %14.4 °C---18.3 1020 hPa-
18/05/2022 03:1518.3 °C78 %14.4 °C-ONO3 km/h18.3 1020 hPa-
18/05/2022 03:0218.5 °C78 %14.4 °C---18.3 1021 hPa-
18/05/2022 03:0018.5 °C78 %14.4 °C-ONO3 km/h18.3 1021 hPa-
18/05/2022 02:4718.7 °C77 %14.4 °C---18.9 1021 hPa-
18/05/2022 02:4518.7 °C77 %14.4 °C-ONO3 km/h18.9 1021 hPa-
18/05/2022 02:3219.0 °C76 %14.4 °C---18.9 1020 hPa-
18/05/2022 02:3019.1 °C75 %14.4 °C-ONO3 km/h18.9 1021 hPa-
18/05/2022 02:1619.3 °C75 %15.0 °C---19.4 1020 hPa-
18/05/2022 02:1419.4 °C75 %15.0 °C-ONO3 km/h19.4 1020 hPa-
18/05/2022 02:0119.6 °C74 %15.0 °C---19.4 1020 hPa-
18/05/2022 01:5919.7 °C74 %15.0 °C-ONO3 km/h19.4 1020 hPa-
18/05/2022 01:4719.8 °C73 %15.0 °C---20.0 1020 hPa-
18/05/2022 01:4419.9 °C73 %15.0 °C-ONO3 km/h20.0 1020 hPa-
18/05/2022 01:3220.1 °C72 %15.0 °C---20.0 1020 hPa-
18/05/2022 01:3020.2 °C72 %15.0 °C-O3 km/h20.0 1020 hPa-
18/05/2022 01:1720.3 °C71 %15.0 °C---20.6 1020 hPa-
18/05/2022 01:1520.4 °C72 %15.0 °C-ONO3 km/h20.6 1020 hPa-
18/05/2022 01:0220.7 °C70 %15.0 °C-O2 km/h20.6 1020 hPa-
18/05/2022 01:0020.7 °C70 %15.0 °C-O3 km/h20.6 1020 hPa-
18/05/2022 00:4721.1 °C69 %15.0 °C---21.1 1020 hPa-
18/05/2022 00:4521.1 °C69 %15.0 °C-ONO3 km/h21.1 1020 hPa-
18/05/2022 00:3221.4 °C69 %15.6 °C---21.7 1019 hPa-
18/05/2022 00:3021.4 °C69 %15.6 °C-ONO3 km/h21.7 1019 hPa-
18/05/2022 00:1721.8 °C68 %15.6 °C-ONO2 km/h21.7 1019 hPa-
18/05/2022 00:1521.8 °C67 %15.6 °C-ONO3 km/h21.7 1019 hPa-
18/05/2022 00:0322.1 °C66 %15.6 °C-ONO3 km/h22.2 1019 hPa-
18/05/2022 00:0022.2 °C65 %15.6 °C---22.2 1019 hPa-


Minima :

Température : 15.3 °C
Humidité : 56 %
Point de rosée : 13.3 °C
Vent moyen : 2 km/h
Windchill : 15.6
Pression atm. : 1017 hPa
Maxima :

Température : 29.3 °C
Humidité : 89 %
Point de rosée : 20.6 °C
Vent moyen : 2 km/h
Windchill : 29.4
Pression atm. : 1022 hPa
Rafales max : 16 km/h
Cumul de pluie sur 24H : 0 mm

Culan est une commune du département Cher (18).
La station météorologique du réseau de l'association la plus proche de Culan est celle de Beddes



Icône Facebook Association Météo Centre Icône Twitter Association Météo Centre Icône Chaîne Youtube Association Météo Centre Icône contact Association Météo Centre Icône Insta Association Météo Centre